Airfield :
LOGIN :

Register | Disclaimer

   EN    FR    IT 

 










Legend :    VFR   Marginal VFR   IFR   Intensive IFR   Very Intensive IFR
Visi :
Ceiling :
>= 8 km
>= 3000ft
5 to 8 km
1000 to 3000 ft
1500m to 5 km
500 to 1000 ft
800 to 1500m
200 to 500 ft
< 800m
< 200 ft
Symbols :   Thunderstorms  Fog  Heavy snow  Heavy precipitations  Wind > 20 kt
SIGMETs :     Misc.  Thunderstorms  Icing  Turbulence  Mountain Waves  Volcanic Ashes







- Airport Elevation : 242 ft
- IATA code : DUB


EIDW - Dublin

CURRENT METAR :
  • 202130Z 27011KT 9000 -RADZ FEW009 SCT012 BKN019 12/10 Q1029 NOSIG

EXPIRED METARs :
  • 202100Z 23005KT 170V280 9999 -SHRA SCT010 SCT020 BKN040 13/11 Q1029 NOSIG
  • 202030Z 22006KT 190V250 9999 FEW010 SCT020 BKN040 13/11 Q1029 NOSIG
  • 202000Z 23006KT 200V260 9999 FEW010 BKN020 BKN040 13/11 Q1028 NOSIG
  • 201930Z 23006KT 190V260 9999 FEW010 BKN020 BKN040 13/12 Q1028 NOSIG
  • 201900Z 23006KT 190V260 9999 FEW006 BKN010 BKN020 13/12 Q1028 NOSIG

TAF COR TAF EIDW
Valid from the 20 at 18:00 until the 21 at 18:00 UTC


201752Z 2018/2118 23009KT 9999 FEW012 BKN025
TEMPO 2018/2021 5000 -DZ BKN012
PROB30
TEMPO 2018/2020 3000
TEMPO 2021/2108 BKN012
PROB30
TEMPO 2021/2108 5000 -DZ BR BKN008
PROB30
TEMPO 2108/2113 BKN012
BECMG 2113/2116 20009KT
No reported NOTAMs for that airfield.



MET'MAP, your aeronautical weather chart ! - Copyright ORBIFLY December 2007 - Disclaimer

ORBIFLY MET'MAP TEAM :

Programming & Development : Alexandra Zaïnal
Concept & Development : Baudouin d'Aumeries
Co-Development & Prog : Marc-Olivier Méhu
Technical & hardware support : Manuel Goepfert

Contact : metmap@orbifly.com




SOURCES & CREDITS :

   NOAA